CheckWX is a tool to help pilots better visualize weather data.  It is not intended as a substitute for an official pre-flight weather briefing.

17:28:21 UTC

KMCI METAR
Kansas City International Airport
Kansas City, Missouri, USA
Current

26 mins ago

KMCI 261702Z 14008KT 10SM SCT009 OVC016 22/19 A2973 RMK AO2 T02220194
Observed
May-26 @ 17:02 UTC
Wind
  • 140° at 8 KTS
Visibility
Flight Rules
MVFR
Cloud Levels
  • Scattered at 900' AGL
  • Overcast at 1,600' AGL
Temperature
22°C / 72°F
Dewpoint
19°C / 66°F
Humidity
83%
Altimeter
29.73" Hg
Pressure
1006.82 hPa
Previous

35 mins ago

KMCI 261653Z 13010KT 10SM FEW007 BKN011 OVC021 22/20 A2974 RMK AO2 DZE14RAB14E25B29E45 SLP061 P0000 T02220200
Observed
May-26 @ 16:53 UTC
Wind
  • 130° at 10 KTS
Visibility
Flight Rules
MVFR
Cloud Levels
  • Few at 700' AGL
  • Broken at 1,100' AGL
  • Overcast at 2,100' AGL
Temperature
22°C / 72°F
Dewpoint
20°C / 68°F
Humidity
88%
Altimeter
29.74" Hg
Pressure
1007.12 hPa
Current Rain
0.01"
Previous

47 mins ago

KMCI 261641Z 12012KT 7SM -RA SCT008 BKN015 OVC022 21/20 A2974 RMK AO2 DZE14RAB14E25B29 P0000 T02110200
Observed
May-26 @ 16:41 UTC
Wind
  • 120° at 12 KTS
Visibility
Flight Rules
MVFR
Conditions
Light Rain
Cloud Levels
  • Scattered at 800' AGL
  • Broken at 1,500' AGL
  • Overcast at 2,200' AGL
Temperature
21°C / 70°F
Dewpoint
20°C / 68°F
Humidity
94%
Altimeter
29.74" Hg
Pressure
1007.12 hPa
Current Rain
0.01"